Latest Weather Observations for Samuel Hill

IDQ60801

Issued at 1:02 pm EST Friday 20 October 2017 (issued every 30 minutes, with the page automatically refreshed every 10 minutes)

About weather observations | Map of weather stations | Latest weather observations for QLD | Other Formats
Station Details ID: 033308 Name: SAMUEL HILL AERO Lat: -22.74 Lon: 150.66 Height: 31.0 m
Data from the previous 72 hours. | See also: Recent months at Samuel Hill
Date/Time
EST
Temp
°C
App
Temp
°C
Dew
Point
°C
Rel
Hum
%
Delta-T
°C
Wind Press
QNH
hPa
Press
MSL
hPa
Rain since
9am
mm
Dir  Spd
km/h
Gust
km/h
Spd
kts
Gust
kts
20/01:00pm 26.7 25.5 16.0 52 6.6 E 17 28 9 15 1017.8 1017.7 0.0
20/12:30pm 25.6 24.2 17.0 59 5.3 E 20 32 11 17 1018.4 1018.3 0.0
20/12:00pm 26.2 24.6 15.0 50 6.7 ESE 17 26 9 14 1018.7 1018.6 0.0
20/11:30am 25.8 24.5 15.8 54 6.1 SE 17 28 9 15 1019.0 1018.9 0.0
20/11:00am 26.0 24.4 15.1 51 6.6 ESE 17 26 9 14 1019.2 1019.1 0.0
20/10:30am 25.6 24.4 16.2 56 5.8 E 17 26 9 14 1019.4 1019.3 0.0
20/10:00am 26.5 26.0 15.8 51 6.5 ENE 13 20 7 11 1019.4 1019.3 0.0
20/09:30am 26.1 24.5 16.1 54 6.1 ENE 19 30 10 16 1019.5 1019.4 0.0
20/09:00am 26.3 25.5 17.1 57 5.7 E 17 24 9 13 1019.5 1019.4 0.4
20/08:30am 25.9 25.2 17.3 59 5.4 E 17 22 9 12 1019.6 1019.5 0.4
20/08:00am 24.6 24.0 16.6 61 4.9 E 15 24 8 13 1019.5 1019.4 0.4
20/07:30am 25.0 24.4 16.7 60 5.1 E 15 22 8 12 1019.5 1019.4 0.4
20/07:00am 23.2 25.1 18.9 77 2.7 SSE 7 11 4 6 1019.3 1019.2 0.4
20/06:30am 21.4 23.0 18.2 82 2.0 S 7 11 4 6 1019.2 1019.1 0.4
20/06:00am 20.9 22.3 17.9 83 1.9 S 7 11 4 6 1019.1 1019.0 0.4
20/05:30am 20.7 22.2 17.5 82 2.0 S 6 7 3 4 1018.6 1018.5 0.4
20/05:00am 21.0 22.1 17.2 79 2.3 SSE 7 9 4 5 1018.4 1018.3 0.4
20/04:30am 20.9 22.1 16.9 78 2.4 SE 6 11 3 6 1018.2 1018.1 0.4
20/04:00am 21.4 21.3 17.0 76 2.7 ESE 13 26 7 14 1018.1 1018.0 0.4
20/03:30am 21.5 22.0 16.5 73 3.0 E 9 13 5 7 1017.9 1017.8 0.4
20/03:00am 21.6 21.8 16.8 74 2.9 ESE 11 15 6 8 1018.0 1017.9 0.4
20/02:30am 21.9 21.7 16.6 72 3.2 E 13 24 7 13 1018.2 1018.1 0.4
20/02:00am 22.3 22.1 16.8 71 3.4 E 13 24 7 13 1018.3 1018.2 0.4
20/01:30am 22.5 22.4 17.0 71 3.4 ESE 13 24 7 13 1018.6 1018.5 0.4
20/01:00am 22.2 22.0 15.8 67 3.8 E 11 17 6 9 1019.1 1019.0 0.4
20/12:30am 22.1 20.4 15.7 67 3.8 ESE 19 33 10 18 1019.7 1019.6 0.4
20/12:00am 22.5 21.3 16.1 67 3.9 ESE 17 24 9 13 1020.0 1019.9 0.4
 
Date/Time
EST
Temp
°C
App
Temp
°C
Dew
Point
°C
Rel
Hum
%
Delta-T
°C
Wind Press
QNH
hPa
Press
MSL
hPa
Rain since
9am
mm
Dir  Spd
km/h
Gust
km/h
Spd
kts
Gust
kts
19/11:30pm 22.5 21.6 16.8 70 3.5 ESE 17 26 9 14 1020.2 1020.1 0.4
19/11:00pm 22.6 21.8 17.1 71 3.4 ESE 17 24 9 13 1020.8 1020.7 0.4
19/10:30pm 22.0 22.6 17.6 76 2.7 SE 11 20 6 11 1021.0 1020.9 0.4
19/10:00pm 21.8 22.0 17.6 77 2.6 SE 13 20 7 11 1021.2 1021.1 0.4
19/09:30pm 22.3 22.2 17.0 72 3.3 E 13 26 7 14 1021.2 1021.1 0.4
19/09:00pm 23.0 22.2 17.2 70 3.6 ESE 17 24 9 13 1021.2 1021.1 0.4
19/08:30pm 22.9 21.7 17.1 70 3.6 ESE 19 32 10 17 1020.9 1020.8 0.4
19/08:00pm 22.7 22.1 17.6 73 3.2 ESE 17 30 9 16 1020.7 1020.6 0.4
19/07:30pm 23.1 22.2 17.8 72 3.3 ESE 19 30 10 16 1020.4 1020.3 0.4
19/07:00pm 22.8 21.9 17.7 73 3.2 SE 19 28 10 15 1020.2 1020.1 0.4
19/06:30pm 23.2 21.9 17.2 69 3.7 ESE 20 33 11 18 1019.9 1019.8 0.4
19/06:00pm 23.1 23.3 17.6 71 3.4 ESE 13 20 7 11 1019.7 1019.6 0.4
19/05:30pm 23.1 22.6 17.8 72 3.3 ESE 17 32 9 17 1019.3 1019.2 0.4
19/05:00pm 22.9 22.3 18.4 76 2.8 SE 19 33 10 18 1019.2 1019.1 0.4
19/04:30pm 23.2 23.0 18.5 75 3.0 ESE 17 32 9 17 1019.0 1018.9 0.4
19/04:00pm 24.0 23.6 18.0 69 3.8 E 17 32 9 17 1018.9 1018.8 0.4
19/03:30pm 24.2 23.2 18.8 72 3.4 ESE 22 32 12 17 1018.7 1018.6 0.4
19/03:00pm 24.2 23.7 19.1 73 3.2 E 20 30 11 16 1019.0 1018.9 0.4
19/02:30pm 24.1 22.8 18.1 69 3.8 ESE 22 35 12 19 1019.0 1018.9 0.4
19/02:00pm 23.2 22.9 19.2 78 2.5 ESE 19 32 10 17 1019.3 1019.2 0.4
19/01:30pm 24.7 22.3 17.4 64 4.5 ESE 26 37 14 20 1019.3 1019.2 0.4
19/01:00pm 25.3 23.6 18.2 64 4.5 E 24 43 13 23 1019.5 1019.4 0.4
19/12:30pm 23.1 21.9 19.3 79 2.4 E 24 44 13 24 1019.7 1019.6 0.2
19/12:00pm 23.7 22.6 19.4 77 2.7 ENE 24 39 13 21 1019.9 1019.8 0.2
19/11:30am 25.2 24.5 18.6 67 4.2 ESE 20 41 11 22 1019.7 1019.6 0.2
19/11:00am 25.1 24.2 19.0 69 3.9 E 22 35 12 19 1019.5 1019.4 0.2
19/10:30am 25.0 24.0 18.9 69 3.9 E 22 37 12 20 1019.7 1019.6 0.2
19/10:00am 24.5 23.3 19.3 73 3.3 ESE 24 37 13 20 1019.8 1019.7 0.2
19/09:30am 24.8 24.0 19.2 71 3.6 E 22 33 12 18 1019.9 1019.8 0.2
19/09:00am 25.5 24.5 19.6 70 3.8 ESE 24 37 13 20 1019.8 1019.7 15.2
19/08:30am 24.5 23.9 19.8 75 3.0 ESE 22 33 12 18 1019.8 1019.7 15.2
19/08:00am 24.0 23.7 19.5 76 2.9 ESE 20 33 11 18 1019.7 1019.6 15.2
19/07:30am 24.0 23.8 19.7 77 2.8 E 20 35 11 19 1019.8 1019.7 15.2
19/07:00am 23.8 23.7 19.5 77 2.8 ESE 19 30 10 16 1019.7 1019.6 15.2
19/06:30am 23.5 23.0 19.2 77 2.7 ESE 20 32 11 17 1019.4 1019.3 15.2
19/06:00am 23.3 23.0 19.5 79 2.4 ESE 20 35 11 19 1019.0 1018.9 15.2
19/05:30am 23.2 22.9 19.6 80 2.3 ESE 20 28 11 15 1018.5 1018.4 15.2
19/05:00am 23.2 23.2 19.8 81 2.2 E 19 30 10 16 1018.2 1018.1 15.2
19/04:30am 22.9 22.8 19.9 83 1.9 E 20 30 11 16 1017.8 1017.7 15.2
19/04:00am 23.3 23.6 19.7 80 2.3 E 17 24 9 13 1017.9 1017.8 15.2
19/03:30am 23.3 23.3 19.7 80 2.3 ESE 19 28 10 15 1017.8 1017.7 15.2
19/03:00am 23.4 22.7 19.5 79 2.5 E 22 35 12 19 1017.8 1017.7 15.2
19/02:30am 23.5 23.5 19.8 80 2.4 E 19 32 10 17 1017.9 1017.8 15.2
19/02:00am 23.5 23.3 19.8 80 2.4 E 20 30 11 16 1018.1 1018.0 15.2
19/01:30am 23.5 23.4 20.0 81 2.3 ESE 20 33 11 18 1018.5 1018.4 15.2
19/01:00am 23.5 23.3 19.8 80 2.4 ESE 20 35 11 19 1018.9 1018.8 15.2
19/12:30am 23.6 23.1 19.9 80 2.4 E 22 37 12 20 1019.1 1019.0 15.2
19/12:00am 23.5 23.6 20.4 83 2.0 E 20 33 11 18 1019.2 1019.1 15.2
 
Date/Time
EST
Temp
°C
App
Temp
°C
Dew
Point
°C
Rel
Hum
%
Delta-T
°C
Wind Press
QNH
hPa
Press
MSL
hPa
Rain since
9am
mm
Dir  Spd
km/h
Gust
km/h
Spd
kts
Gust
kts
18/11:30pm 23.3 23.1 20.6 85 1.8 E 22 35 12 19 1019.3 1019.2 15.2
18/11:00pm 22.8 23.6 20.7 88 1.4 E 17 28 9 15 1019.6 1019.5 15.2
18/10:30pm 23.2 23.6 20.7 86 1.6 E 19 32 10 17 1019.6 1019.5 15.0
18/10:00pm 23.1 23.0 20.8 87 1.5 E 22 37 12 20 1019.7 1019.6 15.0
18/09:40pm 23.0 23.0 20.9 88 1.4 E 22 37 12 20 1019.5 1019.4 15.0
18/09:30pm 22.9 22.9 21.0 89 1.2 E 22 37 12 20 1019.4 1019.3 15.0
18/09:13pm 22.7 23.4 21.2 91 1.0 E 19 32 10 17 1019.3 1019.2 15.0
18/09:02pm 22.5 22.9 21.0 91 1.0 E 20 32 11 17 1019.1 1019.0 15.0
18/09:00pm 22.5 22.9 21.0 91 1.0 E 20 33 11 18 1019.1 1019.0 15.0
18/08:40pm 22.5 21.4 21.0 91 1.0 E 28 48 15 26 1019.0 1018.9 15.0
18/08:30pm 22.9 23.6 21.2 90 1.1 E 19 33 10 18 1018.9 1018.8 14.8
18/08:13pm 22.7 23.8 21.3 92 0.9 E 17 30 9 16 1018.6 1018.5 14.8
18/08:00pm 22.6 23.3 21.2 92 0.9 E 19 28 10 15 1018.5 1018.4 14.8
18/07:43pm 22.4 23.3 20.9 91 1.0 E 17 28 9 15 1018.5 1018.4 14.8
18/07:30pm 22.7 22.5 20.6 88 1.4 E 22 33 12 18 1018.4 1018.3 14.4
18/07:24pm 23.4 24.3 20.9 86 1.6 E 17 30 9 16 1018.3 1018.2 13.6
18/07:00pm 23.9 24.2 20.8 83 2.0 E 20 32 11 17 1017.9 1017.8 13.6
18/06:30pm 24.0 24.5 21.1 84 1.9 E 20 35 11 19 1017.4 1017.3 13.6
18/06:00pm 24.1 24.2 21.2 84 1.9 E 22 32 12 17 1017.0 1016.9 13.6
18/05:30pm 24.3 24.5 21.4 84 1.9 E 22 35 12 19 1016.5 1016.4 13.6
18/05:00pm 24.7 25.3 21.4 82 2.2 E 20 37 11 20 1016.0 1015.9 13.6
18/04:30pm 25.3 26.1 21.8 81 2.3 E 20 32 11 17 1015.6 1015.5 13.4
18/04:00pm 25.5 27.0 22.0 81 2.3 E 17 30 9 16 1015.4 1015.3 13.4
18/03:30pm 24.8 24.7 21.5 82 2.2 E 24 39 13 21 1015.4 1015.3 13.4
18/03:00pm 26.1 27.0 22.0 78 2.7 E 20 32 11 17 1015.3 1015.2 13.4
18/02:30pm 25.6 25.7 21.9 80 2.5 E 24 37 13 20 1015.4 1015.3 13.4
18/02:00pm 25.6 26.5 21.9 80 2.5 E 20 28 11 15 1015.6 1015.5 13.4
18/01:30pm 25.6 27.2 22.1 81 2.3 E 17 30 9 16 1015.8 1015.7 13.4
18/01:20pm 25.6 26.5 21.9 80 2.5 E 20 30 11 16 1015.9 1015.8 13.4
18/01:02pm 26.0 26.8 22.5 81 2.4 E 22 33 12 18 1016.0 1015.9 13.4
18/01:00pm 25.7 26.7 22.2 81 2.3 E 20 33 11 18 1016.0 1015.9 13.4
18/12:30pm 25.0 25.0 21.7 82 2.2 E 24 41 13 22 1016.1 1016.0 13.2
18/12:16pm 25.4 26.5 22.3 83 2.1 E 20 32 11 17 1016.2 1016.1 13.2
18/12:00pm 25.2 26.0 21.7 81 2.3 ESE 20 32 11 17 1016.4 1016.3 13.2
18/11:30am 25.2 26.5 22.3 84 1.9 ESE 19 28 10 15 1016.6 1016.5 13.2
18/11:11am 24.6 25.8 22.1 86 1.7 E 19 28 10 15 1016.8 1016.7 13.2
18/11:00am 24.3 25.4 22.4 89 1.3 E 20 28 11 15 1016.9 1016.8 13.2
18/10:47am 23.4 25.0 22.2 93 0.8 ENE 17 26 9 14 1017.1 1017.0 13.2
18/10:30am 23.1 24.7 21.4 90 1.1 ESE 15 24 8 13 1017.2 1017.1 12.6
18/10:27am 23.0 24.1 21.3 90 1.1 E 17 26 9 14 1017.3 1017.2 12.2
18/10:15am 23.3 25.7 22.3 94 0.7 ENE 13 19 7 10 1017.3 1017.2 11.2
18/10:12am 23.2 25.6 22.2 94 0.7 E 13 19 7 10 1017.4 1017.3 11.2
18/10:00am 22.7 24.8 21.7 94 0.7 ESE 13 20 7 11 1017.3 1017.2 10.6
18/09:52am 22.5 24.9 21.5 94 0.7 E 11 20 6 11 1017.6 1017.5 7.8
18/09:30am 23.0 24.7 20.9 88 1.4 E 13 24 7 13 1017.3 1017.2 2.4
18/09:27am 23.1 24.3 20.6 86 1.6 E 15 24 8 13 1017.4 1017.3 1.4
18/09:00am 24.2 26.4 21.9 87 1.5 ESE 13 20 7 11 1017.0 1016.9 57.0
18/08:54am 23.6 25.2 21.5 88 1.4 SE 15 20 8 11 1017.0 1016.9 57.0
18/08:30am 23.3 25.8 22.5 95 0.5 E 13 24 7 13 1016.7 1016.6 57.0
18/08:00am 22.0 25.3 21.8 99 0.1 ESE 7 13 4 7 1016.6 1016.5 57.0
18/07:30am 21.4 23.6 21.2 99 0.1 ENE 11 17 6 9 1016.3 1016.2 57.0
18/07:28am 21.4 23.6 21.2 99 0.1 ENE 11 17 6 9 1016.2 1016.1 57.0
18/07:00am 21.3 23.8 21.1 99 0.1 SE 9 15 5 8 1015.9 1015.8 54.6
18/06:40am 21.1 23.9 20.9 99 0.1 SSE 7 11 4 6 1015.7 1015.6 52.0
18/06:30am 21.2 24.1 21.0 99 0.1 SSE 7 11 4 6 1015.5 1015.4 50.0
18/06:00am 21.2 23.7 21.0 99 0.1 SE 9 13 5 7 1015.2 1015.1 49.2
18/05:39am 21.2 23.7 21.0 99 0.1 ENE 9 13 5 7 1015.0 1014.9 48.4
18/05:30am 21.2 23.3 21.0 99 0.1 ENE 11 17 6 9 1014.9 1014.8 48.4
18/05:00am 20.9 23.6 20.7 99 0.1 ESE 7 13 4 7 1014.6 1014.5 44.4
18/04:35am 20.9 22.9 20.7 99 0.1 S 11 17 6 9 1013.9 1013.8 41.8
18/04:30am 20.9 22.9 20.7 99 0.1 SSW 11 17 6 9 1013.9 1013.8 41.8
18/04:11am 20.9 23.6 20.7 99 0.1 S 7 9 4 5 1014.0 1013.9 41.4
18/04:00am 20.9 24.5 20.6 98 0.2 E 2 6 1 3 1013.9 1013.8 40.8
18/03:30am 20.8 23.4 20.5 98 0.2 S 7 11 4 6 1013.4 1013.3 38.6
18/03:00am 20.9 23.7 20.4 97 0.3 SSW 6 6 3 3 1013.7 1013.6 38.4
18/02:50am 21.0 24.6 20.5 97 0.3 S 2 6 1 3 1013.5 1013.4 38.4
18/02:30am 20.8 24.2 20.1 96 0.4 E 2 6 1 3 1013.6 1013.5 38.2
18/02:00am 20.8 22.9 20.1 96 0.4 NE 9 17 5 9 1013.8 1013.7 37.2
18/01:46am 20.7 21.9 20.0 96 0.4 NNE 13 20 7 11 1013.9 1013.8 36.8
18/01:30am 21.1 20.9 20.6 97 0.3 NE 22 35 12 19 1014.0 1013.9 35.8
18/01:00am 21.1 21.9 20.6 97 0.3 NE 17 26 9 14 1014.2 1014.1 29.8
18/12:30am 20.9 23.4 20.2 96 0.4 SW 7 9 4 5 1014.4 1014.3 19.0
18/12:00am 21.0 23.7 20.2 95 0.5 E 6 7 3 4 1014.5 1014.4 18.8
 
Date/Time
EST
Temp
°C
App
Temp
°C
Dew
Point
°C
Rel
Hum
%
Delta-T
°C
Wind Press
QNH
hPa
Press
MSL
hPa
Rain since
9am
mm
Dir  Spd
km/h
Gust
km/h
Spd
kts
Gust
kts
17/11:35pm 21.0 23.1 20.2 95 0.5 E 9 13 5 7 1015.0 1014.9 18.2
17/11:30pm 21.1 23.3 20.3 95 0.5 ENE 9 20 5 11 1015.0 1014.9 17.8
17/11:04pm 21.6 21.5 20.8 95 0.5 ENE 22 39 12 21 1015.0 1014.9 12.0
17/11:00pm 21.5 23.1 20.8 96 0.5 ENE 13 35 7 19 1014.9 1014.8 11.6
17/10:33pm 21.6 24.0 20.8 95 0.5 E 9 17 5 9 1014.8 1014.7 9.6
17/10:30pm 21.5 23.5 20.7 95 0.5 ENE 11 17 6 9 1014.8 1014.7 9.4
17/10:13pm 21.7 21.7 20.9 95 0.5 NE 22 32 12 17 1014.8 1014.7 7.8
17/10:00pm 21.5 24.8 20.7 95 0.5 S 4 11 2 6 1014.6 1014.5 2.6
17/09:30pm 21.4 25.3 20.4 94 0.6 CALM 0 0 0 0 1014.4 1014.3 2.6
17/09:00pm 21.4 25.3 20.4 94 0.6 CALM 0 6 0 3 1014.6 1014.5 2.6
17/08:30pm 21.5 24.2 20.3 93 0.8 SSW 6 7 3 4 1014.3 1014.2 2.6
17/08:00pm 21.5 24.1 20.1 92 0.9 E 6 15 3 8 1014.2 1014.1 2.6
17/07:30pm 21.6 25.4 20.1 91 1.0 CALM 0 0 0 0 1013.9 1013.8 2.4
17/07:00pm 21.5 22.1 19.4 88 1.3 NNE 15 24 8 13 1013.7 1013.6 2.4
17/06:30pm 23.7 26.1 20.8 84 1.9 NE 9 13 5 7 1013.3 1013.2 1.2
17/06:00pm 23.8 25.8 20.7 83 2.0 NE 11 17 6 9 1012.9 1012.8 1.2
17/05:30pm 24.3 25.9 20.8 81 2.3 NNE 13 20 7 11 1012.6 1012.5 1.2
17/05:00pm 24.6 27.1 21.1 81 2.3 NE 9 13 5 7 1012.0 1011.9 1.2
17/04:30pm 24.9 26.7 21.2 80 2.4 NNE 13 19 7 10 1011.8 1011.7 1.2
17/04:00pm 25.0 27.3 21.3 80 2.4 NE 11 17 6 9 1011.5 1011.4 1.2
17/03:30pm 24.2 26.2 21.5 85 1.8 E 13 17 7 9 1011.1 1011.0 1.2
17/03:00pm 23.9 25.1 19.8 78 2.6 ESE 13 28 7 15 1011.0 1010.9 1.2
17/02:30pm 25.3 28.8 22.8 86 1.7 SSW 9 11 5 6 1010.8 1010.7 1.2
17/02:21pm 25.2 28.5 22.5 85 1.8 SSW 9 11 5 6 1010.8 1010.7 1.2
17/02:08pm 24.6 29.5 22.3 87 1.5 CALM 0 6 0 3 1011.1 1011.0 1.2
17/02:00pm 24.6 28.5 22.5 88 1.4 SSW 6 11 3 6 1011.1 1011.0 1.0
17/01:30pm 24.5 27.6 22.2 87 1.5 S 9 15 5 8 1011.5 1011.4 1.0

Other Formats:

Comma delimited format used in spreadsheet applications
http://www.bom.gov.au/fwo/IDQ60801/IDQ60801.94370.axf

JavaScript Object Notation format (JSON) in row-major order
http://www.bom.gov.au/fwo/IDQ60801/IDQ60801.94370.json